KDSM/DSM METAR and TAF weather

Enter ICAO airport designator
Station Type Date Time Source
KDSM METAR 2020/01/21 20:54 UTC NOAA

KDSM 212054Z 18013KT 10SM FEW230 OVC250 M07/M12 A3034 RMK AO2 SLP296 60000 T10721117 56039


Station Type Date Time Source
KDSM Decoded METAR 2020/01/21 20:54 UTC NOAA

DES MOINES INTERNATIONAL, IA, United States (KDSM) 41-32N 93-40W 295M
Jan 21, 2020 - 03:54 PM EST / 2020.01.21 2054 UTC
Wind: from the S (180 degrees) at 15 MPH (13 KT):0
Visibility: 10 mile(s):0
Sky conditions: overcast
Temperature: 19.0 F (-7.2 C)
Windchill: 5 F (-15 C):1
Dew Point: 10.9 F (-11.7 C)
Relative Humidity: 70%
Pressure (altimeter): 30.34 in. Hg (1027 hPa)
Pressure tendency: 0.12 inches (3.9 hPa) lower than three hours ago
ob: KDSM 212054Z 18013KT 10SM FEW230 OVC250 M07/M12 A3034 RMK AO2 SLP296 60000 T10721117 56039
cycle: 21

Station Type Date Time Source
KDSM TAF 2020/01/21 18:39 UTC NOAA

TAF KDSM 211736Z 2118/2218 19010KT P6SM FEW007 BKN250
FM212100 18011KT P6SM BKN250
FM220300 17011KT P6SM BKN250 WS020/21040KT
FM221200 19013KT 5SM -SN OVC025
FM221400 18012KT 2SM -SN OVC008
FM221500 18012KT 1 1/2SM -SN OVC008

Example: see airport list